createdAt,value
2023-03-11T00:00:40.273Z,61.30
2023-03-11T00:02:42.568Z,61.00
2023-03-11T00:04:44.261Z,60.50
2023-03-11T00:06:45.903Z,60.90
2023-03-11T00:08:47.718Z,61.10
2023-03-11T00:10:52.084Z,61.10
2023-03-11T00:12:53.740Z,61.00
2023-03-11T00:14:55.372Z,61.10
2023-03-11T00:16:57.191Z,61.20
2023-03-11T00:18:58.865Z,61.00
2023-03-11T00:21:01.131Z,60.70
2023-03-11T00:23:03.668Z,60.60
2023-03-11T00:25:05.411Z,60.10
2023-03-11T00:27:07.091Z,59.00
2023-03-11T00:29:08.952Z,59.60
2023-03-11T00:31:12.327Z,59.60
2023-03-11T00:33:15.398Z,59.30
2023-03-11T00:35:19.165Z,58.60
2023-03-11T00:37:20.865Z,58.90
2023-03-11T00:39:23.198Z,59.10
2023-03-11T00:41:25.022Z,59.30
2023-03-11T00:43:26.708Z,59.20
2023-03-11T00:45:28.801Z,59.10
2023-03-11T00:47:30.484Z,59.40
2023-03-11T00:49:32.781Z,59.60
2023-03-11T00:51:34.725Z,59.80
2023-03-11T00:53:36.666Z,59.90
2023-03-11T00:55:38.548Z,59.80
2023-03-11T00:57:43.457Z,59.90
2023-03-11T00:59:45.155Z,59.70
2023-03-11T01:01:46.894Z,59.90
2023-03-11T01:03:48.950Z,59.70
2023-03-11T01:05:51.973Z,59.70
2023-03-11T01:07:53.653Z,59.70
2023-03-11T01:09:55.269Z,59.90
2023-03-11T01:11:57.111Z,59.50
2023-03-11T01:13:58.823Z,59.70
2023-03-11T01:16:01.096Z,59.70
2023-03-11T01:18:03.407Z,59.80
2023-03-11T01:20:09.050Z,59.70
2023-03-11T01:22:10.854Z,59.50
2023-03-11T01:24:12.559Z,59.60
2023-03-11T01:26:15.477Z,59.60
2023-03-11T01:28:17.078Z,59.50
2023-03-11T01:30:20.324Z,59.50
2023-03-11T01:32:22.127Z,59.70
2023-03-11T01:34:23.800Z,59.80
2023-03-11T01:36:25.664Z,60.00
2023-03-11T01:38:27.429Z,59.70
2023-03-11T01:40:33.922Z,59.80
2023-03-11T01:42:39.066Z,59.80
2023-03-11T01:44:40.772Z,59.90
2023-03-11T01:46:54.422Z,59.80
2023-03-11T01:49:00.306Z,59.60
2023-03-11T01:51:05.657Z,59.80
2023-03-11T01:53:08.277Z,59.70
2023-03-11T01:55:11.271Z,59.90
2023-03-11T01:57:13.598Z,60.10
2023-03-11T01:59:17.583Z,60.00
2023-03-11T02:01:20.110Z,60.10
2023-03-11T02:03:25.955Z,60.20
2023-03-11T02:05:27.955Z,60.20
2023-03-11T02:07:29.689Z,60.20
2023-03-11T02:09:31.429Z,60.20
2023-03-11T02:11:33.151Z,59.90
2023-03-11T02:13:36.201Z,59.90
2023-03-11T02:15:39.970Z,60.10
2023-03-11T02:17:42.861Z,60.10
2023-03-11T02:19:59.511Z,59.80
2023-03-11T02:22:01.418Z,59.80
2023-03-11T02:24:12.103Z,60.00
2023-03-11T02:26:22.897Z,59.90
2023-03-11T02:28:26.981Z,60.00
2023-03-11T02:30:29.154Z,59.90
2023-03-11T02:32:31.242Z,60.00
2023-03-11T02:34:33.738Z,60.10
2023-03-11T02:36:37.472Z,60.10
2023-03-11T02:38:40.020Z,60.10
2023-03-11T02:40:55.487Z,60.00
2023-03-11T02:42:59.630Z,60.10
2023-03-11T02:45:05.763Z,60.10
2023-03-11T02:47:07.538Z,60.00
2023-03-11T02:49:09.544Z,59.90
2023-03-11T02:51:11.190Z,59.80
2023-03-11T02:53:12.906Z,59.40
2023-03-11T02:55:16.033Z,59.70
2023-03-11T02:57:17.796Z,59.60
2023-03-11T02:59:19.530Z,59.80
2023-03-11T03:01:21.319Z,59.60
2023-03-11T03:03:24.088Z,59.70
2023-03-11T03:05:25.759Z,59.80
2023-03-11T03:07:27.466Z,59.80
2023-03-11T03:09:30.298Z,59.80
2023-03-11T03:11:32.081Z,59.70
2023-03-11T03:13:34.076Z,59.80
2023-03-11T03:15:35.975Z,59.80
2023-03-11T03:17:38.390Z,59.80
2023-03-11T03:19:41.594Z,59.90
2023-03-11T03:21:43.324Z,59.90
2023-03-11T03:23:44.964Z,60.10
2023-03-11T03:25:46.715Z,60.00
2023-03-11T03:27:49.456Z,59.80
2023-03-11T03:29:51.457Z,59.80
2023-03-11T03:31:53.734Z,59.80
2023-03-11T03:33:55.904Z,59.70
2023-03-11T03:35:57.562Z,59.80
2023-03-11T03:38:03.595Z,59.80
2023-03-11T03:40:09.295Z,59.50
2023-03-11T03:42:11.231Z,59.60
2023-03-11T03:44:15.442Z,59.50
2023-03-11T03:46:17.210Z,59.80
2023-03-11T03:48:22.342Z,59.80
2023-03-11T03:50:24.035Z,59.60
2023-03-11T03:52:27.512Z,59.50
2023-03-11T03:54:29.184Z,59.80
2023-03-11T03:56:30.873Z,59.80
2023-03-11T03:58:32.767Z,59.70
2023-03-11T04:00:34.638Z,59.00
2023-03-11T04:02:37.600Z,59.20
2023-03-11T04:04:40.265Z,59.10
2023-03-11T04:06:43.787Z,59.20
2023-03-11T04:08:45.473Z,59.40
2023-03-11T04:10:56.195Z,59.50
2023-03-11T04:12:58.181Z,59.60
2023-03-11T04:14:59.998Z,59.40
2023-03-11T04:17:02.240Z,59.60
2023-03-11T04:19:05.688Z,59.70
2023-03-11T04:21:07.804Z,59.10
2023-03-11T04:23:09.533Z,59.10
2023-03-11T04:25:13.056Z,59.50
2023-03-11T04:27:14.711Z,59.80
2023-03-11T04:29:16.468Z,59.70
2023-03-11T04:31:23.260Z,59.90
2023-03-11T04:33:25.313Z,59.90
2023-03-11T04:35:27.085Z,59.80
2023-03-11T04:37:29.103Z,60.00
2023-03-11T04:39:31.468Z,59.80
2023-03-11T04:41:33.407Z,59.80
2023-03-11T04:43:35.619Z,60.00
2023-03-11T04:45:40.950Z,59.80
2023-03-11T04:47:42.672Z,59.80
2023-03-11T04:49:44.476Z,59.90
2023-03-11T04:51:46.921Z,59.70
2023-03-11T04:53:51.048Z,59.70
2023-03-11T04:55:53.821Z,59.50
2023-03-11T04:57:55.619Z,59.80
2023-03-11T04:59:58.565Z,59.70
2023-03-11T05:02:00.453Z,59.80
2023-03-11T05:04:02.635Z,59.90
2023-03-11T05:06:04.524Z,60.00
2023-03-11T05:08:06.360Z,60.00
2023-03-11T05:10:09.408Z,60.00
2023-03-11T05:12:12.439Z,60.00
2023-03-11T05:14:15.506Z,60.00
2023-03-11T05:16:17.218Z,60.10
2023-03-11T05:18:18.993Z,60.10
2023-03-11T05:20:21.828Z,60.30
2023-03-11T05:22:23.524Z,60.30
2023-03-11T05:24:26.206Z,60.10
2023-03-11T05:26:28.013Z,60.10
2023-03-11T05:28:29.837Z,60.10
2023-03-11T05:30:31.676Z,60.20
2023-03-11T05:32:33.746Z,60.10
2023-03-11T05:34:35.611Z,60.10
2023-03-11T05:36:37.304Z,60.10
2023-03-11T05:38:39.427Z,59.90
2023-03-11T05:40:41.138Z,59.90
2023-03-11T05:42:42.988Z,59.90
2023-03-11T05:44:46.645Z,60.00
2023-03-11T05:46:48.475Z,60.10
2023-03-11T05:48:50.370Z,60.10
2023-03-11T05:50:52.226Z,60.10
2023-03-11T05:52:55.362Z,60.10
2023-03-11T05:54:57.892Z,60.10
2023-03-11T05:57:02.471Z,60.30
2023-03-11T05:59:05.707Z,60.40
2023-03-11T06:01:10.880Z,60.40
2023-03-11T06:03:12.560Z,60.40
2023-03-11T06:05:14.586Z,60.40
2023-03-11T06:07:18.243Z,60.30
2023-03-11T06:09:22.579Z,60.20
2023-03-11T06:11:25.724Z,60.20
2023-03-11T06:13:27.541Z,60.20
2023-03-11T06:15:29.413Z,60.00
2023-03-11T06:17:31.232Z,60.10
2023-03-11T06:19:33.370Z,60.10
2023-03-11T06:21:35.217Z,60.10
2023-03-11T06:23:37.011Z,60.20
2023-03-11T06:25:39.031Z,60.20
2023-03-11T06:27:40.913Z,60.30
2023-03-11T06:29:43.382Z,60.40
2023-03-11T06:31:45.225Z,60.50
2023-03-11T06:33:47.949Z,60.40
2023-03-11T06:35:56.791Z,60.50
2023-03-11T06:37:58.814Z,60.40
2023-03-11T06:40:00.416Z,60.40
2023-03-11T06:42:02.138Z,60.30
2023-03-11T06:44:05.000Z,60.20
2023-03-11T06:46:12.333Z,60.20
2023-03-11T06:48:15.310Z,60.20
2023-03-11T06:50:17.136Z,60.10
2023-03-11T06:52:19.185Z,60.20
2023-03-11T06:54:20.831Z,60.10
2023-03-11T06:56:22.885Z,60.10
2023-03-11T06:58:29.723Z,60.10
2023-03-11T07:00:31.690Z,60.10
2023-03-11T07:02:34.765Z,60.10
2023-03-11T07:04:36.455Z,60.00
2023-03-11T07:06:38.079Z,60.00
2023-03-11T07:08:49.046Z,61.00
2023-03-11T07:11:06.174Z,60.20
2023-03-11T07:13:08.687Z,60.00
2023-03-11T07:15:10.880Z,60.00
2023-03-11T07:17:12.761Z,60.10
2023-03-11T07:19:22.185Z,60.20
2023-03-11T07:21:23.948Z,60.00
2023-03-11T07:23:25.578Z,60.00
2023-03-11T07:25:27.181Z,60.00
2023-03-11T07:27:29.187Z,60.00
2023-03-11T07:29:30.884Z,60.00
2023-03-11T07:31:33.532Z,60.10
2023-03-11T07:33:35.517Z,59.00
2023-03-11T07:35:37.150Z,59.30
2023-03-11T07:37:38.773Z,59.30
2023-03-11T07:39:40.420Z,59.30
2023-03-11T07:41:42.184Z,59.30
2023-03-11T07:43:44.233Z,59.10
2023-03-11T07:45:45.886Z,59.40
2023-03-11T07:47:47.582Z,58.90
2023-03-11T07:49:49.325Z,59.00
2023-03-11T07:51:51.093Z,59.40
2023-03-11T07:53:53.910Z,59.20
2023-03-11T07:55:56.338Z,58.90
2023-03-11T07:57:58.107Z,58.90
2023-03-11T07:59:59.716Z,58.40
2023-03-11T08:02:02.816Z,58.70
2023-03-11T08:04:06.124Z,58.70
2023-03-11T08:06:18.655Z,58.60
2023-03-11T08:08:20.321Z,58.50
2023-03-11T08:10:21.987Z,58.70
2023-03-11T08:12:23.658Z,58.40
2023-03-11T08:14:25.382Z,58.50
2023-03-11T08:16:27.508Z,59.10
2023-03-11T08:18:30.806Z,58.60
2023-03-11T08:20:32.747Z,58.70
2023-03-11T08:22:34.409Z,58.70
2023-03-11T08:24:36.125Z,59.00
2023-03-11T08:26:37.814Z,59.00
2023-03-11T08:28:39.529Z,58.60
2023-03-11T08:30:42.077Z,58.10
2023-03-11T08:32:43.818Z,56.90
2023-03-11T08:34:45.536Z,57.40
2023-03-11T08:36:47.370Z,57.40
2023-03-11T08:38:49.087Z,58.00
2023-03-11T08:40:50.741Z,58.20
2023-03-11T08:42:52.421Z,58.30
2023-03-11T08:44:54.088Z,58.30
2023-03-11T08:46:55.745Z,58.40
2023-03-11T08:49:00.779Z,58.40
2023-03-11T08:51:08.154Z,58.40
2023-03-11T08:53:10.166Z,58.70
2023-03-11T08:55:17.455Z,58.80
2023-03-11T08:57:19.234Z,58.60
2023-03-11T08:59:20.901Z,58.30
2023-03-11T09:01:23.548Z,58.60
2023-03-11T09:03:25.398Z,58.80
2023-03-11T09:05:27.073Z,58.70
2023-03-11T09:07:28.759Z,58.50
2023-03-11T09:09:30.500Z,58.30
2023-03-11T09:11:32.182Z,58.30
2023-03-11T09:13:33.806Z,58.20
2023-03-11T09:15:36.421Z,58.30
2023-03-11T09:17:38.076Z,58.40
2023-03-11T09:19:39.740Z,58.50
2023-03-11T09:21:41.499Z,58.00
2023-03-11T09:23:44.539Z,58.20
2023-03-11T09:25:46.349Z,58.60
2023-03-11T09:27:48.038Z,58.70
2023-03-11T09:29:49.716Z,58.70
2023-03-11T09:31:51.401Z,58.70
2023-03-11T09:33:53.121Z,57.80
2023-03-11T09:35:54.823Z,57.40
2023-03-11T09:37:56.523Z,57.90
2023-03-11T09:39:58.172Z,58.30
2023-03-11T09:42:05.060Z,58.20
2023-03-11T09:44:12.253Z,57.90
2023-03-11T09:46:24.384Z,57.50
2023-03-11T09:48:29.233Z,56.90
2023-03-11T09:50:37.941Z,57.30
2023-03-11T09:52:43.079Z,57.20
2023-03-11T09:54:51.068Z,56.10
2023-03-11T09:56:53.206Z,56.80
2023-03-11T09:58:56.559Z,56.50
2023-03-11T10:00:58.340Z,56.20
2023-03-11T10:03:01.632Z,57.00
2023-03-11T10:05:15.547Z,57.00
2023-03-11T10:07:21.712Z,56.50
2023-03-11T10:09:40.057Z,56.20
2023-03-11T10:11:46.917Z,55.50
2023-03-11T10:13:55.917Z,56.40
2023-03-11T10:16:13.904Z,57.00
2023-03-11T10:18:24.688Z,56.90
2023-03-11T10:20:29.063Z,57.10
2023-03-11T10:22:41.529Z,57.80
2023-03-11T10:24:54.524Z,57.40
2023-03-11T10:26:58.907Z,57.20
2023-03-11T10:29:03.301Z,57.00
2023-03-11T10:31:18.877Z,56.90
2023-03-11T10:33:20.527Z,56.70
2023-03-11T10:35:23.561Z,56.30
2023-03-11T10:37:48.434Z,56.40
2023-03-11T10:39:51.359Z,55.70
2023-03-11T10:41:57.425Z,56.40
2023-03-11T10:44:02.123Z,56.50
2023-03-11T10:46:06.861Z,55.80
2023-03-11T10:48:15.766Z,56.10
2023-03-11T10:50:18.158Z,55.80
2023-03-11T10:52:19.943Z,55.60
2023-03-11T10:54:26.539Z,55.80
2023-03-11T10:56:31.065Z,55.90
2023-03-11T10:58:32.777Z,55.70
2023-03-11T11:00:34.546Z,55.90
2023-03-11T11:02:43.631Z,56.00
2023-03-11T11:04:45.511Z,55.80
2023-03-11T11:06:47.137Z,56.30
2023-03-11T11:08:48.808Z,56.20
2023-03-11T11:10:55.184Z,56.10
2023-03-11T11:13:01.909Z,56.30
2023-03-11T11:15:03.889Z,54.80
2023-03-11T11:17:05.767Z,55.00
2023-03-11T11:19:15.092Z,54.50
2023-03-11T11:21:34.070Z,54.30
2023-03-11T11:23:40.842Z,55.40
2023-03-11T11:25:43.593Z,54.70
2023-03-11T11:27:54.086Z,55.00
2023-03-11T11:30:08.794Z,55.20
2023-03-11T11:32:19.493Z,55.20
2023-03-11T11:34:31.873Z,54.70
2023-03-11T11:36:35.980Z,54.60
2023-03-11T11:38:37.877Z,53.90
2023-03-11T11:40:39.656Z,53.60
2023-03-11T11:42:44.184Z,53.80
2023-03-11T11:44:51.118Z,53.40
2023-03-11T11:46:57.782Z,53.20
2023-03-11T11:49:05.368Z,53.30
2023-03-11T11:51:33.375Z,53.40
2023-03-11T11:53:39.731Z,52.80
2023-03-11T11:55:44.077Z,53.40
2023-03-11T11:57:46.240Z,54.10
2023-03-11T11:59:48.143Z,54.50
2023-03-11T12:01:50.097Z,53.90
2023-03-11T12:04:03.957Z,54.00
2023-03-11T12:06:26.013Z,53.00
2023-03-11T12:08:27.685Z,53.90
2023-03-11T12:10:33.402Z,53.50
2023-03-11T12:13:04.360Z,54.50
2023-03-11T12:15:45.052Z,54.10
2023-03-11T12:17:47.501Z,54.10
2023-03-11T12:19:56.328Z,53.70
2023-03-11T12:22:00.604Z,54.60
2023-03-11T12:24:08.321Z,53.30
2023-03-11T12:26:16.570Z,54.10
2023-03-11T12:28:18.230Z,54.10
2023-03-11T12:30:30.543Z,53.80
2023-03-11T12:32:34.596Z,53.00
2023-03-11T12:34:36.529Z,52.60
2023-03-11T12:36:42.127Z,53.10
2023-03-11T12:38:46.470Z,52.10
2023-03-11T12:40:49.252Z,53.60
2023-03-11T12:42:50.915Z,52.40
2023-03-11T12:44:53.819Z,53.00
2023-03-11T12:46:58.626Z,50.80
2023-03-11T12:49:03.491Z,52.40
2023-03-11T12:51:06.022Z,53.10
2023-03-11T12:53:15.680Z,53.60
2023-03-11T12:55:17.325Z,52.40
2023-03-11T12:57:18.918Z,52.30
2023-03-11T12:59:23.341Z,51.50
2023-03-11T13:01:33.377Z,51.20
2023-03-11T13:03:46.088Z,50.60
2023-03-11T13:06:06.714Z,51.10
2023-03-11T13:08:15.774Z,50.00
2023-03-11T13:10:36.009Z,51.50
2023-03-11T13:12:46.792Z,51.30
2023-03-11T13:14:48.425Z,51.70
2023-03-11T13:16:50.272Z,52.40
2023-03-11T13:18:51.926Z,51.80
2023-03-11T13:21:01.006Z,52.20
2023-03-11T13:23:02.622Z,51.50
2023-03-11T13:25:22.014Z,50.10
2023-03-11T13:27:34.760Z,51.20
2023-03-11T13:29:55.252Z,51.60
2023-03-11T13:32:04.220Z,51.80
2023-03-11T13:34:18.165Z,52.10
2023-03-11T13:36:26.049Z,51.40
2023-03-11T13:38:36.854Z,51.10
2023-03-11T13:40:47.767Z,50.10
2023-03-11T13:42:50.960Z,50.60
2023-03-11T13:44:52.752Z,50.10
2023-03-11T13:47:00.126Z,50.00
2023-03-11T13:49:14.798Z,50.40
2023-03-11T13:51:16.451Z,49.10
2023-03-11T13:53:22.786Z,48.30
2023-03-11T13:55:43.004Z,48.90
2023-03-11T13:57:55.108Z,48.90
2023-03-11T13:59:57.953Z,49.50
2023-03-11T14:02:14.623Z,50.00
2023-03-11T14:04:20.697Z,49.80
2023-03-11T14:06:22.417Z,49.70
2023-03-11T14:08:37.215Z,49.70
2023-03-11T14:10:41.225Z,49.50
2023-03-11T14:12:43.092Z,49.90
2023-03-11T14:15:05.410Z,49.60
2023-03-11T14:17:10.535Z,50.10
2023-03-11T14:19:19.200Z,49.70
2023-03-11T14:21:21.919Z,49.50
2023-03-11T14:23:26.426Z,49.20
2023-03-11T14:25:31.060Z,48.80
2023-03-11T14:27:32.774Z,48.90
2023-03-11T14:29:34.531Z,49.40
2023-03-11T14:31:40.863Z,49.60
2023-03-11T14:33:42.531Z,50.00
2023-03-11T14:35:51.850Z,50.10
2023-03-11T14:37:53.820Z,49.50
2023-03-11T14:39:55.535Z,48.90
2023-03-11T14:42:07.716Z,49.00
2023-03-11T14:44:09.846Z,49.30
2023-03-11T14:46:18.574Z,50.10
2023-03-11T14:48:32.523Z,50.40
2023-03-11T14:50:38.032Z,49.70
2023-03-11T14:52:48.242Z,49.90
2023-03-11T14:54:52.710Z,49.90
2023-03-11T14:56:59.877Z,50.00
2023-03-11T14:59:09.620Z,48.70
2023-03-11T15:01:15.731Z,49.00
2023-03-11T15:03:22.399Z,48.60
2023-03-11T15:05:34.831Z,49.50
2023-03-11T15:07:37.435Z,49.90
2023-03-11T15:09:40.284Z,49.40
2023-03-11T15:11:47.109Z,49.60
2023-03-11T15:13:51.214Z,49.70
2023-03-11T15:15:57.376Z,50.40
2023-03-11T15:18:00.153Z,50.50
2023-03-11T15:20:01.888Z,50.40
2023-03-11T15:22:20.234Z,49.80
2023-03-11T15:24:24.429Z,50.60
2023-03-11T15:26:31.072Z,50.50
2023-03-11T15:28:33.981Z,49.60
2023-03-11T15:30:35.855Z,48.70
2023-03-11T15:32:39.813Z,48.30
2023-03-11T15:34:42.524Z,48.80
2023-03-11T15:36:49.879Z,49.30
2023-03-11T15:39:06.779Z,49.40
2023-03-11T15:41:10.209Z,49.60
2023-03-11T15:43:15.016Z,49.50
2023-03-11T15:45:17.818Z,49.50
2023-03-11T15:47:21.360Z,50.20
2023-03-11T15:49:23.090Z,50.20
2023-03-11T15:51:24.855Z,49.80
2023-03-11T15:53:27.880Z,49.40
2023-03-11T15:55:29.682Z,49.30
2023-03-11T15:57:31.436Z,49.50
2023-03-11T15:59:34.015Z,50.00
2023-03-11T16:01:35.780Z,50.30
2023-03-11T16:03:38.875Z,50.00
2023-03-11T16:05:40.862Z,49.00
2023-03-11T16:07:42.681Z,49.30
2023-03-11T16:09:44.413Z,50.00
2023-03-11T16:11:46.401Z,50.40
2023-03-11T16:13:48.142Z,50.20
2023-03-11T16:15:49.882Z,50.30
2023-03-11T16:17:52.386Z,50.00
2023-03-11T16:19:54.389Z,51.10
2023-03-11T16:21:56.242Z,50.70
2023-03-11T16:23:57.958Z,50.00
2023-03-11T16:26:00.870Z,50.40
2023-03-11T16:28:02.992Z,50.00
2023-03-11T16:30:04.923Z,50.10
2023-03-11T16:32:06.862Z,50.10
2023-03-11T16:34:08.581Z,50.00
2023-03-11T16:36:10.585Z,50.30
2023-03-11T16:38:12.345Z,50.80
2023-03-11T16:40:21.183Z,50.90
2023-03-11T16:42:23.930Z,50.90
2023-03-11T16:44:25.647Z,51.20
2023-03-11T16:46:27.738Z,51.10
2023-03-11T16:48:29.475Z,51.10
2023-03-11T16:50:31.754Z,50.90
2023-03-11T16:52:33.495Z,51.00
2023-03-11T16:54:35.426Z,50.60
2023-03-11T16:56:41.625Z,50.40
2023-03-11T16:58:43.493Z,50.70
2023-03-11T17:00:46.910Z,50.70
2023-03-11T17:02:48.575Z,50.30
2023-03-11T17:04:50.376Z,50.00
2023-03-11T17:06:52.171Z,50.50
2023-03-11T17:08:53.959Z,50.60
2023-03-11T17:10:55.793Z,50.70
2023-03-11T17:12:57.738Z,50.50
2023-03-11T17:15:00.387Z,50.80
2023-03-11T17:17:02.279Z,50.70
2023-03-11T17:19:04.047Z,50.80
2023-03-11T17:21:09.751Z,50.70
2023-03-11T17:23:11.652Z,50.90
2023-03-11T17:25:13.486Z,51.20
2023-03-11T17:27:15.222Z,51.30
2023-03-11T17:29:17.048Z,51.60
2023-03-11T17:31:18.931Z,51.80
2023-03-11T17:33:20.734Z,51.70
2023-03-11T17:35:22.465Z,51.60
2023-03-11T17:37:24.496Z,51.80
2023-03-11T17:39:26.246Z,51.90
2023-03-11T17:41:28.030Z,52.70
2023-03-11T17:43:29.737Z,52.10
2023-03-11T17:45:31.518Z,52.20
2023-03-11T17:47:33.308Z,52.20
2023-03-11T17:49:34.952Z,52.30
2023-03-11T17:51:36.640Z,52.50
2023-03-11T17:53:39.124Z,52.60
2023-03-11T17:55:40.889Z,52.70
2023-03-11T17:57:45.870Z,52.80
2023-03-11T17:59:49.714Z,52.90
2023-03-11T18:01:51.531Z,52.90
2023-03-11T18:03:53.783Z,52.70
2023-03-11T18:05:56.399Z,52.60
2023-03-11T18:07:58.554Z,52.70
2023-03-11T18:10:00.239Z,52.70
2023-03-11T18:12:02.575Z,53.00
2023-03-11T18:14:04.344Z,53.10
2023-03-11T18:16:07.888Z,53.10
2023-03-11T18:18:09.709Z,53.20
2023-03-11T18:20:12.872Z,53.20
2023-03-11T18:22:15.955Z,53.30
2023-03-11T18:24:17.698Z,53.40
2023-03-11T18:26:19.766Z,53.40
2023-03-11T18:28:21.436Z,53.60
2023-03-11T18:30:23.162Z,53.70
2023-03-11T18:32:24.967Z,53.80
2023-03-11T18:34:26.669Z,53.80
2023-03-11T18:36:32.797Z,53.70
2023-03-11T18:38:34.540Z,53.80
2023-03-11T18:40:36.281Z,54.00
2023-03-11T18:42:38.155Z,54.10
2023-03-11T18:44:40.548Z,54.30
2023-03-11T18:46:42.513Z,54.50
2023-03-11T18:48:44.193Z,54.50
2023-03-11T18:50:55.391Z,54.50
2023-03-11T18:52:57.198Z,54.50
2023-03-11T18:54:58.902Z,54.60
2023-03-11T18:57:00.736Z,54.60
2023-03-11T18:59:02.599Z,54.60
2023-03-11T19:01:15.123Z,54.60
2023-03-11T19:03:17.008Z,54.70
2023-03-11T19:05:18.841Z,54.80
2023-03-11T19:07:20.631Z,54.80
2023-03-11T19:09:22.444Z,54.70
2023-03-11T19:11:24.780Z,54.80
2023-03-11T19:13:34.440Z,54.90
2023-03-11T19:15:46.352Z,54.90
2023-03-11T19:18:00.569Z,55.00
2023-03-11T19:20:08.784Z,55.00
2023-03-11T19:22:10.664Z,55.00
2023-03-11T19:24:12.654Z,54.90
2023-03-11T19:26:14.376Z,55.00
2023-03-11T19:28:16.431Z,55.10
2023-03-11T19:30:18.489Z,55.20
2023-03-11T19:32:20.270Z,55.20
2023-03-11T19:34:22.366Z,55.40
2023-03-11T19:36:24.071Z,55.50
2023-03-11T19:38:26.211Z,55.60
2023-03-11T19:40:30.088Z,55.60
2023-03-11T19:42:34.984Z,55.60
2023-03-11T19:44:36.714Z,55.80
2023-03-11T19:46:38.508Z,55.80
2023-03-11T19:48:40.328Z,55.80
2023-03-11T19:50:42.086Z,55.70
2023-03-11T19:52:43.869Z,55.80
2023-03-11T19:54:45.584Z,55.90
2023-03-11T19:56:48.019Z,56.00
2023-03-11T19:58:49.903Z,56.30
2023-03-11T20:00:52.053Z,56.10
2023-03-11T20:02:56.520Z,56.00
2023-03-11T20:04:58.476Z,56.00
2023-03-11T20:07:00.220Z,55.90
2023-03-11T20:09:02.069Z,55.90
2023-03-11T20:11:04.710Z,55.80
2023-03-11T20:13:06.754Z,56.00
2023-03-11T20:15:08.847Z,56.00
2023-03-11T20:17:10.701Z,56.00
2023-03-11T20:19:12.597Z,56.00
2023-03-11T20:21:14.496Z,56.10
2023-03-11T20:23:16.261Z,56.20
2023-03-11T20:25:18.279Z,56.40
2023-03-11T20:27:20.190Z,56.50
2023-03-11T20:29:21.998Z,56.50
2023-03-11T20:31:24.663Z,56.30
2023-03-11T20:33:26.349Z,56.40
2023-03-11T20:35:28.079Z,56.40
2023-03-11T20:37:32.870Z,56.50
2023-03-11T20:39:35.044Z,56.70
2023-03-11T20:41:38.937Z,56.60
2023-03-11T20:43:41.041Z,56.50
2023-03-11T20:45:42.930Z,56.50
2023-03-11T20:47:44.918Z,56.50
2023-03-11T20:49:46.678Z,56.50
2023-03-11T20:51:48.488Z,56.50
2023-03-11T20:53:50.639Z,56.70
2023-03-11T20:55:52.540Z,56.70
2023-03-11T20:57:54.400Z,56.90
2023-03-11T20:59:56.303Z,56.90
2023-03-11T21:01:58.063Z,56.80
2023-03-11T21:04:01.718Z,56.70
2023-03-11T21:06:03.726Z,56.70
2023-03-11T21:08:05.667Z,56.60
2023-03-11T21:10:09.310Z,56.50
2023-03-11T21:12:11.035Z,56.40
2023-03-11T21:14:16.913Z,56.40
2023-03-11T21:16:19.415Z,56.50
2023-03-11T21:18:21.252Z,56.70
2023-03-11T21:20:23.113Z,56.70
2023-03-11T21:22:24.867Z,56.60
2023-03-11T21:24:26.727Z,56.60
2023-03-11T21:26:28.738Z,56.60
2023-03-11T21:28:30.876Z,56.60
2023-03-11T21:30:32.692Z,56.90
2023-03-11T21:32:34.483Z,56.90
2023-03-11T21:34:36.326Z,56.90
2023-03-11T21:36:38.290Z,56.90
2023-03-11T21:38:40.524Z,57.10
2023-03-11T21:40:42.352Z,57.00
2023-03-11T21:42:44.043Z,56.90
2023-03-11T21:44:45.768Z,56.80
2023-03-11T21:46:47.571Z,56.90
2023-03-11T21:48:49.674Z,57.10
2023-03-11T21:50:52.331Z,57.00
2023-03-11T21:52:54.054Z,56.90
2023-03-11T21:54:56.547Z,56.80
2023-03-11T21:56:58.481Z,56.80
2023-03-11T21:59:00.321Z,56.70
2023-03-11T22:01:02.157Z,56.60
2023-03-11T22:03:04.103Z,56.80
2023-03-11T22:05:06.111Z,56.90
2023-03-11T22:07:08.144Z,57.00
2023-03-11T22:09:09.984Z,57.00
2023-03-11T22:11:17.371Z,57.00
2023-03-11T22:13:19.291Z,57.10
2023-03-11T22:15:21.265Z,57.00
2023-03-11T22:17:23.162Z,57.00
2023-03-11T22:19:25.023Z,57.10
2023-03-11T22:21:26.845Z,57.10
2023-03-11T22:23:28.719Z,57.10
2023-03-11T22:25:30.474Z,57.10
2023-03-11T22:27:32.265Z,57.10
2023-03-11T22:29:33.967Z,57.20
2023-03-11T22:31:35.681Z,57.10
2023-03-11T22:33:37.414Z,57.00
2023-03-11T22:35:39.134Z,56.90
2023-03-11T22:37:40.944Z,57.00
2023-03-11T22:39:43.363Z,57.00
2023-03-11T22:41:45.131Z,57.00
2023-03-11T22:43:47.335Z,56.90
2023-03-11T22:45:49.081Z,57.00
2023-03-11T22:47:51.214Z,57.00
2023-03-11T22:49:52.983Z,57.10
2023-03-11T22:51:54.673Z,57.00
2023-03-11T22:53:56.346Z,57.00
2023-03-11T22:55:58.079Z,57.10
2023-03-11T22:57:59.896Z,57.20
2023-03-11T23:00:01.708Z,57.10
2023-03-11T23:02:03.410Z,57.10
2023-03-11T23:04:05.185Z,57.10
2023-03-11T23:06:08.038Z,57.00
2023-03-11T23:08:10.645Z,57.00
2023-03-11T23:10:13.475Z,57.20
2023-03-11T23:12:15.181Z,57.30
2023-03-11T23:14:16.817Z,57.30
2023-03-11T23:16:20.637Z,57.30
2023-03-11T23:18:22.433Z,57.30
2023-03-11T23:20:24.154Z,57.20
2023-03-11T23:22:25.805Z,57.20
2023-03-11T23:24:27.608Z,57.20
2023-03-11T23:26:29.710Z,57.10
2023-03-11T23:28:31.342Z,57.20
2023-03-11T23:30:33.243Z,57.20
2023-03-11T23:32:34.881Z,57.30
2023-03-11T23:34:37.341Z,57.40
2023-03-11T23:36:39.124Z,57.30
2023-03-11T23:38:40.830Z,57.30
2023-03-11T23:40:42.528Z,57.30
2023-03-11T23:42:44.231Z,57.40
2023-03-11T23:44:45.941Z,57.50
2023-03-11T23:46:47.632Z,57.60
2023-03-11T23:48:49.351Z,57.50
2023-03-11T23:50:51.244Z,57.50
2023-03-11T23:52:52.900Z,57.50
2023-03-11T23:54:55.057Z,57.50
2023-03-11T23:56:56.757Z,57.50
2023-03-11T23:58:58.430Z,57.60
